createdAt,value
2019-04-25T00:00:46.607Z,17.00
2019-04-25T00:02:11.508Z,17.10
2019-04-25T00:03:17.740Z,17.10
2019-04-25T00:04:22.467Z,17.10
2019-04-25T00:05:27.042Z,17.10
2019-04-25T00:06:32.554Z,17.10
2019-04-25T00:07:37.158Z,17.00
2019-04-25T00:08:43.050Z,17.10
2019-04-25T00:09:49.564Z,17.00
2019-04-25T00:10:54.215Z,17.00
2019-04-25T00:11:59.742Z,17.00
2019-04-25T00:13:05.118Z,17.00
2019-04-25T00:14:11.321Z,17.00
2019-04-25T00:15:16.785Z,17.00
2019-04-25T00:16:23.305Z,17.00
2019-04-25T00:17:27.772Z,17.00
2019-04-25T00:18:32.246Z,17.00
2019-04-25T00:19:36.741Z,16.90
2019-04-25T00:20:43.616Z,16.90
2019-04-25T00:22:02.076Z,16.90
2019-04-25T00:23:11.782Z,16.90
2019-04-25T00:24:32.828Z,16.90
2019-04-25T00:25:45.423Z,16.80
2019-04-25T00:26:49.766Z,16.90
2019-04-25T00:27:54.252Z,16.80
2019-04-25T00:28:58.735Z,16.80
2019-04-25T00:30:03.569Z,16.80
2019-04-25T00:31:08.526Z,16.80
2019-04-25T00:32:12.990Z,16.70
2019-04-25T00:33:17.477Z,16.70
2019-04-25T00:34:21.942Z,16.70
2019-04-25T00:35:26.435Z,16.70
2019-04-25T00:36:31.870Z,16.70
2019-04-25T00:37:36.369Z,16.70
2019-04-25T00:38:42.709Z,16.60
2019-04-25T00:39:47.122Z,16.60
2019-04-25T00:40:52.482Z,16.60
2019-04-25T00:41:58.007Z,16.60
2019-04-25T00:43:02.508Z,16.60
2019-04-25T00:44:06.983Z,16.60
2019-04-25T00:45:11.925Z,16.50
2019-04-25T00:46:17.713Z,16.50
2019-04-25T00:47:22.331Z,16.50
2019-04-25T00:48:26.823Z,16.50
2019-04-25T00:49:32.251Z,16.50
2019-04-25T00:50:36.858Z,16.50
2019-04-25T00:51:42.677Z,16.50
2019-04-25T00:52:48.266Z,16.50
2019-04-25T00:53:54.706Z,16.50
2019-04-25T00:54:59.105Z,16.50
2019-04-25T00:56:03.740Z,16.40
2019-04-25T00:57:08.272Z,16.40
2019-04-25T00:58:14.472Z,16.40
2019-04-25T00:59:22.112Z,16.40
2019-04-25T01:00:44.901Z,16.40
2019-04-25T01:02:02.729Z,16.40
2019-04-25T01:03:08.924Z,16.40
2019-04-25T01:04:13.788Z,16.40
2019-04-25T01:05:18.848Z,16.40
2019-04-25T01:06:23.392Z,16.40
2019-04-25T01:07:27.951Z,16.30
2019-04-25T01:08:32.424Z,16.30
2019-04-25T01:09:36.967Z,16.30
2019-04-25T01:10:41.650Z,16.30
2019-04-25T01:11:46.109Z,16.30
2019-04-25T01:12:52.069Z,16.30
2019-04-25T01:13:56.811Z,16.30
2019-04-25T01:15:01.728Z,16.30
2019-04-25T01:16:06.941Z,16.30
2019-04-25T01:17:11.727Z,16.30
2019-04-25T01:18:16.310Z,16.30
2019-04-25T01:19:20.842Z,16.30
2019-04-25T01:20:25.355Z,16.30
2019-04-25T01:21:29.802Z,16.30
2019-04-25T01:22:34.402Z,16.30
2019-04-25T01:23:39.140Z,16.30
2019-04-25T01:24:43.987Z,16.30
2019-04-25T01:25:49.477Z,16.30
2019-04-25T01:26:54.641Z,16.30
2019-04-25T01:27:59.367Z,16.20
2019-04-25T01:29:04.011Z,16.20
2019-04-25T01:30:09.614Z,16.30
2019-04-25T01:31:16.300Z,16.20
2019-04-25T01:32:23.738Z,16.20
2019-04-25T01:33:28.401Z,16.20
2019-04-25T01:34:34.558Z,16.20
2019-04-25T01:35:44.898Z,16.20
2019-04-25T01:36:57.197Z,16.20
2019-04-25T01:38:13.871Z,16.20
2019-04-25T01:39:25.890Z,16.20
2019-04-25T01:40:49.952Z,16.20
2019-04-25T01:42:05.276Z,16.20
2019-04-25T01:43:11.493Z,16.10
2019-04-25T01:44:17.811Z,16.10
2019-04-25T01:45:24.021Z,16.10
2019-04-25T01:46:28.916Z,16.10
2019-04-25T01:47:33.667Z,16.10
2019-04-25T01:48:38.244Z,16.10
2019-04-25T01:49:43.925Z,16.10
2019-04-25T01:50:49.643Z,16.10
2019-04-25T01:51:57.181Z,16.10
2019-04-25T01:53:00.973Z,16.10
2019-04-25T01:54:05.676Z,16.00
2019-04-25T01:55:10.445Z,16.00
2019-04-25T01:56:15.047Z,16.00
2019-04-25T01:57:19.618Z,16.00
2019-04-25T01:58:24.235Z,16.00
2019-04-25T01:59:28.711Z,16.00
2019-04-25T02:00:37.588Z,16.00
2019-04-25T02:01:42.074Z,16.00
2019-04-25T02:02:46.708Z,16.00
2019-04-25T02:03:51.270Z,16.00
2019-04-25T02:04:57.985Z,15.90
2019-04-25T02:06:04.108Z,15.90
2019-04-25T02:07:08.463Z,15.90
2019-04-25T02:08:14.279Z,16.00
2019-04-25T02:09:19.188Z,15.90
2019-04-25T02:10:23.722Z,15.90
2019-04-25T02:11:29.838Z,15.90
2019-04-25T02:12:43.406Z,15.90
2019-04-25T02:13:48.132Z,15.90
2019-04-25T02:14:54.636Z,15.90
2019-04-25T02:15:59.194Z,15.90
2019-04-25T02:17:04.569Z,15.90
2019-04-25T02:18:09.173Z,15.80
2019-04-25T02:19:14.501Z,15.80
2019-04-25T02:20:19.095Z,15.80
2019-04-25T02:21:23.664Z,15.80
2019-04-25T02:22:28.186Z,15.80
2019-04-25T02:23:34.048Z,15.80
2019-04-25T02:24:39.096Z,15.80
2019-04-25T02:25:44.285Z,15.80
2019-04-25T02:26:49.004Z,15.80
2019-04-25T02:27:55.697Z,15.70
2019-04-25T02:29:00.517Z,15.70
2019-04-25T02:30:07.086Z,15.70
2019-04-25T02:31:11.747Z,15.70
2019-04-25T02:32:16.205Z,15.70
2019-04-25T02:33:20.757Z,15.70
2019-04-25T02:34:25.248Z,15.70
2019-04-25T02:35:29.742Z,15.70
2019-04-25T02:36:34.866Z,15.70
2019-04-25T02:37:39.427Z,15.60
2019-04-25T02:38:44.314Z,15.60
2019-04-25T02:39:49.050Z,15.60
2019-04-25T02:40:56.281Z,15.60
2019-04-25T02:42:01.125Z,15.60
2019-04-25T02:43:08.196Z,15.60
2019-04-25T02:44:14.445Z,15.60
2019-04-25T02:45:38.003Z,15.60
2019-04-25T02:46:44.920Z,15.60
2019-04-25T02:48:07.057Z,15.60
2019-04-25T02:49:30.004Z,15.60
2019-04-25T02:50:39.056Z,15.60
2019-04-25T02:51:48.146Z,15.50
2019-04-25T02:52:55.948Z,15.50
2019-04-25T02:54:01.804Z,15.50
2019-04-25T02:55:10.676Z,15.50
2019-04-25T02:56:30.345Z,15.50
2019-04-25T02:57:19.782Z,15.60
2019-04-25T02:58:24.386Z,15.50
2019-04-25T02:59:28.977Z,15.50
2019-04-25T03:00:47.765Z,15.50
2019-04-25T03:01:39.903Z,15.50
2019-04-25T03:02:44.644Z,15.50
2019-04-25T03:03:49.196Z,15.50
2019-04-25T03:04:54.531Z,15.50
2019-04-25T03:05:59.640Z,15.50
2019-04-25T03:07:08.195Z,15.40
2019-04-25T03:08:11.034Z,15.40
2019-04-25T03:09:15.779Z,15.40
2019-04-25T03:10:20.413Z,15.40
2019-04-25T03:11:24.918Z,15.40
2019-04-25T03:12:33.497Z,15.40
2019-04-25T03:13:35.785Z,15.40
2019-04-25T03:14:40.274Z,15.40
2019-04-25T03:15:44.837Z,15.40
2019-04-25T03:16:49.318Z,15.40
2019-04-25T03:17:54.694Z,15.40
2019-04-25T03:19:09.784Z,15.40
2019-04-25T03:20:31.121Z,15.40
2019-04-25T03:21:37.302Z,15.40
2019-04-25T03:22:44.256Z,15.40
2019-04-25T03:23:49.571Z,15.40
2019-04-25T03:24:54.853Z,15.40
2019-04-25T03:26:01.593Z,15.40
2019-04-25T03:27:07.318Z,15.40
2019-04-25T03:28:13.481Z,15.40
2019-04-25T03:29:18.117Z,15.40
2019-04-25T03:30:25.336Z,15.40
2019-04-25T03:31:28.865Z,15.40
2019-04-25T03:32:35.586Z,15.40
2019-04-25T03:33:39.525Z,15.40
2019-04-25T03:34:44.055Z,15.30
2019-04-25T03:35:48.553Z,15.40
2019-04-25T03:36:53.738Z,15.40
2019-04-25T03:37:58.397Z,15.30
2019-04-25T03:39:04.284Z,15.30
2019-04-25T03:40:09.809Z,15.30
2019-04-25T03:41:14.755Z,15.30
2019-04-25T03:42:19.339Z,15.30
2019-04-25T03:43:23.796Z,15.30
2019-04-25T03:44:28.410Z,15.30
2019-04-25T03:45:33.300Z,15.30
2019-04-25T03:46:37.852Z,15.30
2019-04-25T03:47:43.241Z,15.30
2019-04-25T03:48:47.795Z,15.30
2019-04-25T03:49:55.156Z,15.30
2019-04-25T03:50:58.535Z,15.30
2019-04-25T03:52:05.234Z,15.20
2019-04-25T03:53:09.993Z,15.20
2019-04-25T03:54:14.555Z,15.20
2019-04-25T03:55:19.127Z,15.20
2019-04-25T03:56:24.936Z,15.20
2019-04-25T03:57:29.540Z,15.20
2019-04-25T03:58:34.018Z,15.20
2019-04-25T03:59:38.548Z,15.20
2019-04-25T04:00:44.737Z,15.20
2019-04-25T04:01:49.317Z,15.20
2019-04-25T04:02:55.381Z,15.20
2019-04-25T04:03:59.934Z,15.20
2019-04-25T04:05:07.384Z,15.20
2019-04-25T04:06:14.203Z,15.20
2019-04-25T04:07:18.963Z,15.10
2019-04-25T04:08:24.311Z,15.10
2019-04-25T04:09:28.790Z,15.10
2019-04-25T04:10:33.344Z,15.10
2019-04-25T04:11:37.837Z,15.10
2019-04-25T04:12:42.314Z,15.10
2019-04-25T04:13:46.817Z,15.10
2019-04-25T04:14:51.338Z,15.10
2019-04-25T04:15:55.802Z,15.10
2019-04-25T04:17:18.242Z,15.10
2019-04-25T04:18:27.280Z,15.10
2019-04-25T04:19:33.808Z,15.10
2019-04-25T04:20:39.996Z,15.10
2019-04-25T04:21:53.212Z,15.10
2019-04-25T04:22:59.432Z,15.10
2019-04-25T04:24:06.097Z,15.10
2019-04-25T04:25:13.873Z,15.10
2019-04-25T04:26:19.308Z,15.10
2019-04-25T04:27:24.027Z,15.10
2019-04-25T04:28:28.651Z,15.10
2019-04-25T04:29:33.221Z,15.00
2019-04-25T04:30:37.755Z,15.00
2019-04-25T04:31:43.153Z,15.00
2019-04-25T04:32:47.662Z,15.00
2019-04-25T04:33:53.075Z,15.00
2019-04-25T04:34:57.752Z,15.00
2019-04-25T04:36:03.766Z,15.00
2019-04-25T04:37:09.051Z,15.00
2019-04-25T04:38:14.440Z,15.00
2019-04-25T04:39:19.774Z,15.00
2019-04-25T04:40:24.402Z,15.00
2019-04-25T04:41:28.923Z,15.00
2019-04-25T04:42:33.743Z,15.00
2019-04-25T04:43:38.208Z,15.00
2019-04-25T04:44:43.746Z,15.00
2019-04-25T04:45:48.465Z,15.00
2019-04-25T04:46:53.824Z,15.00
2019-04-25T04:47:58.407Z,14.90
2019-04-25T04:49:03.926Z,15.00
2019-04-25T04:50:09.009Z,15.00
2019-04-25T04:51:14.884Z,14.90
2019-04-25T04:52:19.751Z,15.00
2019-04-25T04:53:24.231Z,15.00
2019-04-25T04:54:28.696Z,15.00
2019-04-25T04:55:34.365Z,15.00
2019-04-25T04:56:38.906Z,15.00
2019-04-25T04:57:44.828Z,15.00
2019-04-25T04:58:49.427Z,15.00
2019-04-25T04:59:53.890Z,15.00
2019-04-25T05:00:58.353Z,15.00
2019-04-25T05:02:11.347Z,15.00
2019-04-25T05:03:34.210Z,15.00
2019-04-25T05:04:40.490Z,15.00
2019-04-25T05:05:53.562Z,15.00
2019-04-25T05:07:09.060Z,15.00
2019-04-25T05:08:24.952Z,15.00
2019-04-25T05:09:29.546Z,15.10
2019-04-25T05:10:34.016Z,15.10
2019-04-25T05:11:38.492Z,15.10
2019-04-25T05:12:43.795Z,15.10
2019-04-25T05:13:48.334Z,15.10
2019-04-25T05:14:53.676Z,15.10
2019-04-25T05:15:58.393Z,15.10
2019-04-25T05:17:04.286Z,15.10
2019-04-25T05:18:09.008Z,15.10
2019-04-25T05:19:15.462Z,15.10
2019-04-25T05:20:20.135Z,15.20
2019-04-25T05:21:25.125Z,15.20
2019-04-25T05:22:29.781Z,15.20
2019-04-25T05:23:34.451Z,15.20
2019-04-25T05:24:39.020Z,15.20
2019-04-25T05:25:44.151Z,15.20
2019-04-25T05:26:48.736Z,15.20
2019-04-25T05:28:02.006Z,15.20
2019-04-25T05:28:59.415Z,15.20
2019-04-25T05:30:10.039Z,15.20
2019-04-25T05:31:22.066Z,15.20
2019-04-25T05:32:26.560Z,15.20
2019-04-25T05:33:31.118Z,15.20
2019-04-25T05:34:35.618Z,15.30
2019-04-25T05:35:40.110Z,15.30
2019-04-25T05:36:44.641Z,15.30
2019-04-25T05:37:49.107Z,15.30
2019-04-25T05:38:53.935Z,15.30
2019-04-25T05:39:58.552Z,15.40
2019-04-25T05:41:04.690Z,15.30
2019-04-25T05:42:10.848Z,15.40
2019-04-25T05:43:16.287Z,15.40
2019-04-25T05:44:20.885Z,15.40
2019-04-25T05:45:27.068Z,15.40
2019-04-25T05:46:31.557Z,15.50
2019-04-25T05:47:36.048Z,15.50
2019-04-25T05:48:41.383Z,15.50
2019-04-25T05:49:45.878Z,15.50
2019-04-25T05:50:50.382Z,15.50
2019-04-25T05:51:54.869Z,15.60
2019-04-25T05:52:59.346Z,15.60
2019-04-25T05:54:04.220Z,15.60
2019-04-25T05:55:08.662Z,15.60
2019-04-25T05:56:13.982Z,15.70
2019-04-25T05:57:18.513Z,15.70
2019-04-25T05:58:24.813Z,15.70
2019-04-25T05:59:29.190Z,15.70
2019-04-25T06:00:34.203Z,15.80
2019-04-25T06:01:38.808Z,15.80
2019-04-25T06:02:45.849Z,15.80
2019-04-25T06:03:49.592Z,15.80
2019-04-25T06:04:54.071Z,15.90
2019-04-25T06:05:58.612Z,15.90
2019-04-25T06:07:03.109Z,15.90
2019-04-25T06:08:07.643Z,15.90
2019-04-25T06:09:29.926Z,16.00
2019-04-25T06:10:39.085Z,16.00
2019-04-25T06:11:50.987Z,16.00
2019-04-25T06:12:57.191Z,16.10
2019-04-25T06:14:03.489Z,16.10
2019-04-25T06:15:08.365Z,16.10
2019-04-25T06:16:14.456Z,16.20
2019-04-25T06:17:26.503Z,16.20
2019-04-25T06:18:44.618Z,16.20
2019-04-25T06:19:53.494Z,16.20
2019-04-25T06:20:57.992Z,16.30
2019-04-25T06:22:03.247Z,16.30
2019-04-25T06:23:25.334Z,16.30
2019-04-25T06:24:33.869Z,16.40
2019-04-25T06:25:39.879Z,16.40
2019-04-25T06:26:46.652Z,16.40
2019-04-25T06:27:58.572Z,16.50
2019-04-25T06:28:59.926Z,16.50
2019-04-25T06:30:08.759Z,16.50
2019-04-25T06:31:13.755Z,16.60
2019-04-25T06:32:18.339Z,16.60
2019-04-25T06:33:24.542Z,16.60
2019-04-25T06:34:31.673Z,16.60
2019-04-25T06:35:35.845Z,16.70
2019-04-25T06:36:40.503Z,16.70
2019-04-25T06:37:45.035Z,16.70
2019-04-25T06:38:49.524Z,16.80
2019-04-25T06:39:53.991Z,16.80
2019-04-25T06:40:58.463Z,16.80
2019-04-25T06:42:04.012Z,16.90
2019-04-25T06:43:08.544Z,16.90
2019-04-25T06:44:14.684Z,17.00
2019-04-25T06:45:39.678Z,17.00
2019-04-25T06:46:45.802Z,17.00
2019-04-25T06:47:54.822Z,17.10
2019-04-25T06:49:03.627Z,17.10
2019-04-25T06:50:08.240Z,17.20
2019-04-25T06:51:13.468Z,17.20
2019-04-25T06:52:17.987Z,17.20
2019-04-25T06:53:24.187Z,17.30
2019-04-25T06:54:29.558Z,17.30
2019-04-25T06:55:34.389Z,17.40
2019-04-25T06:56:38.905Z,17.40
2019-04-25T06:57:44.139Z,17.40
2019-04-25T06:58:48.707Z,17.50
2019-04-25T06:59:53.348Z,17.50
2019-04-25T07:01:00.927Z,17.60
2019-04-25T07:02:04.303Z,17.60
2019-04-25T07:03:08.861Z,17.70
2019-04-25T07:04:14.152Z,17.70
2019-04-25T07:05:28.991Z,17.70
2019-04-25T07:06:26.147Z,17.80
2019-04-25T07:07:31.511Z,17.80
2019-04-25T07:08:35.998Z,17.80
2019-04-25T07:09:40.492Z,17.90
2019-04-25T07:10:45.104Z,17.90
2019-04-25T07:11:49.596Z,17.90
2019-04-25T07:12:54.410Z,18.00
2019-04-25T07:13:59.051Z,18.00
2019-04-25T07:15:05.134Z,18.00
2019-04-25T07:16:09.621Z,18.10
2019-04-25T07:17:14.375Z,18.10
2019-04-25T07:18:18.903Z,18.20
2019-04-25T07:19:25.638Z,18.20
2019-04-25T07:20:30.233Z,18.20
2019-04-25T07:21:35.630Z,18.30
2019-04-25T07:22:40.502Z,18.30
2019-04-25T07:23:46.289Z,18.30
2019-04-25T07:24:50.921Z,18.40
2019-04-25T07:25:57.117Z,18.40
2019-04-25T07:27:19.682Z,18.50
2019-04-25T07:28:37.322Z,18.50
2019-04-25T07:29:46.178Z,18.60
2019-04-25T07:31:08.068Z,18.60
2019-04-25T07:32:24.630Z,18.70
2019-04-25T07:33:39.985Z,18.70
2019-04-25T07:34:44.682Z,18.80
2019-04-25T07:35:49.186Z,18.90
2019-04-25T07:36:53.659Z,18.90
2019-04-25T07:37:58.153Z,18.90
2019-04-25T07:39:08.115Z,19.00
2019-04-25T07:40:09.603Z,19.00
2019-04-25T07:41:16.241Z,19.10
2019-04-25T07:42:20.375Z,19.10
2019-04-25T07:43:25.824Z,19.20
2019-04-25T07:44:45.560Z,19.20
2019-04-25T07:45:36.695Z,19.20
2019-04-25T07:46:41.296Z,19.30
2019-04-25T07:47:45.853Z,19.30
2019-04-25T07:48:50.397Z,19.30
2019-04-25T07:49:54.944Z,19.40
2019-04-25T07:50:59.445Z,19.40
2019-04-25T07:52:04.037Z,19.50
2019-04-25T07:53:08.601Z,19.50
2019-04-25T07:54:14.297Z,19.60
2019-04-25T07:55:18.976Z,19.60
2019-04-25T07:56:24.127Z,19.70
2019-04-25T07:57:29.154Z,19.70
2019-04-25T07:58:49.159Z,19.80
2019-04-25T07:59:46.088Z,19.80
2019-04-25T08:00:50.556Z,19.90
2019-04-25T08:01:55.052Z,20.00
2019-04-25T08:02:59.524Z,20.00
2019-04-25T08:04:04.249Z,20.10
2019-04-25T08:05:14.375Z,20.10
2019-04-25T08:06:19.098Z,20.20
2019-04-25T08:07:24.077Z,20.20
2019-04-25T08:08:29.701Z,20.30
2019-04-25T08:09:35.734Z,20.40
2019-04-25T08:10:58.919Z,20.50
2019-04-25T08:12:04.322Z,20.50
2019-04-25T08:13:08.808Z,20.60
2019-04-25T08:14:20.809Z,20.70
2019-04-25T08:15:33.858Z,20.70
2019-04-25T08:16:40.727Z,20.80
2019-04-25T08:17:46.936Z,20.90
2019-04-25T08:18:51.615Z,21.00
2019-04-25T08:19:56.157Z,21.00
2019-04-25T08:21:01.192Z,21.10
2019-04-25T08:22:05.883Z,21.20
2019-04-25T08:23:11.156Z,21.30
2019-04-25T08:24:15.982Z,21.40
2019-04-25T08:25:20.847Z,21.50
2019-04-25T08:26:25.307Z,21.60
2019-04-25T08:27:30.405Z,21.70
2019-04-25T08:28:48.955Z,21.80
2019-04-25T08:29:42.287Z,21.90
2019-04-25T08:30:46.831Z,22.00
2019-04-25T08:31:51.434Z,22.00
2019-04-25T08:32:56.056Z,22.10
2019-04-25T08:34:00.701Z,22.20
2019-04-25T08:35:06.452Z,22.30
2019-04-25T08:36:11.173Z,22.40
2019-04-25T08:37:18.912Z,22.50
2019-04-25T08:38:23.760Z,22.60
2019-04-25T08:39:28.008Z,22.70
2019-04-25T08:40:34.315Z,22.80
2019-04-25T08:41:38.653Z,22.90
2019-04-25T08:42:44.158Z,22.90
2019-04-25T08:43:48.789Z,23.00
2019-04-25T08:44:53.576Z,23.10
2019-04-25T08:45:58.188Z,23.20
2019-04-25T08:47:04.388Z,23.30
2019-04-25T08:48:09.165Z,23.40
2019-04-25T08:49:24.570Z,23.50
2019-04-25T08:50:33.196Z,23.50
2019-04-25T08:51:42.102Z,23.70
2019-04-25T08:52:46.925Z,23.80
2019-04-25T08:53:58.698Z,23.90
2019-04-25T09:08:05.353Z,25.00
2019-04-25T09:09:09.913Z,25.20
2019-04-25T09:10:15.176Z,25.30
2019-04-25T09:11:19.770Z,25.30
2019-04-25T09:12:24.324Z,25.40
2019-04-25T09:13:28.785Z,25.50
2019-04-25T09:14:35.612Z,25.60
2019-04-25T09:15:39.689Z,25.70
2019-04-25T09:16:45.093Z,25.80
2019-04-25T09:17:49.704Z,25.90
2019-04-25T09:18:54.249Z,26.00
2019-04-25T09:19:58.763Z,26.10
2019-04-25T09:21:03.969Z,26.20
2019-04-25T09:22:08.463Z,26.30
2019-04-25T09:23:13.659Z,26.40
2019-04-25T09:24:18.271Z,26.50
2019-04-25T09:25:24.349Z,26.60
2019-04-25T09:26:28.818Z,26.70
2019-04-25T09:27:34.382Z,26.80
2019-04-25T09:28:41.079Z,26.90
2019-04-25T09:29:46.287Z,27.00
2019-04-25T09:30:51.760Z,27.10
2019-04-25T09:31:56.242Z,27.20
2019-04-25T09:33:00.721Z,27.30
2019-04-25T09:34:05.335Z,27.40
2019-04-25T09:35:09.872Z,27.50
2019-04-25T09:36:14.353Z,27.60
2019-04-25T09:37:19.143Z,27.70
2019-04-25T09:38:24.433Z,27.80
2019-04-25T09:39:39.194Z,27.90
2019-04-25T09:40:44.447Z,28.00
2019-04-25T09:41:49.826Z,28.10
2019-04-25T09:42:54.650Z,28.10
2019-04-25T09:44:00.917Z,28.20
2019-04-25T09:45:25.849Z,28.30
2019-04-25T09:46:31.123Z,28.40
2019-04-25T09:47:35.797Z,28.40
2019-04-25T09:48:42.364Z,28.60
2019-04-25T09:49:48.299Z,28.60
2019-04-25T09:50:54.512Z,28.70
2019-04-25T09:52:03.425Z,28.80
2019-04-25T09:53:15.482Z,28.90
2019-04-25T09:54:33.411Z,28.90
2019-04-25T09:55:57.688Z,29.10
2019-04-25T09:57:09.616Z,29.10
2019-04-25T09:58:27.876Z,29.20
2019-04-25T09:59:33.213Z,29.30
2019-04-25T10:00:40.397Z,29.40
2019-04-25T10:01:46.335Z,29.40
2019-04-25T10:02:50.807Z,29.50
2019-04-25T10:03:55.298Z,29.60
2019-04-25T10:04:59.827Z,29.70
2019-04-25T10:06:04.552Z,29.80
2019-04-25T10:07:09.375Z,29.90
2019-04-25T10:08:13.863Z,30.10
2019-04-25T10:09:18.664Z,30.30
2019-04-25T10:10:24.091Z,30.40
2019-04-25T10:11:29.204Z,30.60
2019-04-25T10:12:34.246Z,30.80
2019-04-25T10:13:39.997Z,30.90
2019-04-25T10:15:20.602Z,31.10
2019-04-25T10:16:25.212Z,31.20
2019-04-25T10:17:29.704Z,31.50
2019-04-25T10:18:34.919Z,31.60
2019-04-25T10:19:39.419Z,31.70
2019-04-25T10:20:45.209Z,31.90
2019-04-25T10:21:50.209Z,32.00
2019-04-25T10:22:54.688Z,32.10
2019-04-25T10:23:59.185Z,32.20
2019-04-25T10:25:04.760Z,32.40
2019-04-25T10:26:10.947Z,32.50
2019-04-25T10:27:15.435Z,32.60
2019-04-25T10:28:19.967Z,32.60
2019-04-25T10:29:24.456Z,32.80
2019-04-25T10:30:29.123Z,32.80
2019-04-25T10:31:33.949Z,32.90
2019-04-25T10:32:38.470Z,33.00
2019-04-25T10:33:43.747Z,33.20
2019-04-25T10:34:49.246Z,33.20
2019-04-25T10:35:59.500Z,33.30
2019-04-25T10:37:00.266Z,33.50
2019-04-25T10:38:04.900Z,33.60
2019-04-25T10:39:11.212Z,33.70
2019-04-25T10:40:16.279Z,33.90
2019-04-25T10:41:21.166Z,34.10
2019-04-25T10:42:25.707Z,34.20
2019-04-25T10:43:30.185Z,34.30
2019-04-25T10:44:34.740Z,34.50
2019-04-25T10:45:39.769Z,34.60
2019-04-25T10:46:46.923Z,34.70
2019-04-25T10:47:51.342Z,34.90
2019-04-25T10:48:56.201Z,35.00
2019-04-25T10:50:00.740Z,35.10
2019-04-25T10:51:05.212Z,35.20
2019-04-25T10:52:10.154Z,35.30
2019-04-25T10:53:14.645Z,35.40
2019-04-25T10:54:19.115Z,35.50
2019-04-25T10:55:23.600Z,35.60
2019-04-25T10:56:28.063Z,35.70
2019-04-25T10:57:33.992Z,35.80
2019-04-25T10:58:40.087Z,35.80
2019-04-25T10:59:57.914Z,35.80
2019-04-25T11:00:52.836Z,35.90
2019-04-25T11:01:57.668Z,35.90
2019-04-25T11:03:20.292Z,35.80
2019-04-25T11:04:26.405Z,35.80
2019-04-25T11:05:30.876Z,35.70
2019-04-25T11:06:35.521Z,35.70
2019-04-25T11:07:40.661Z,35.60
2019-04-25T11:08:45.420Z,35.50
2019-04-25T11:09:50.019Z,35.50
2019-04-25T11:10:55.005Z,35.40
2019-04-25T11:11:59.482Z,35.40
2019-04-25T11:13:04.973Z,35.30
2019-04-25T11:14:09.542Z,35.30
2019-04-25T11:15:14.759Z,35.20
2019-04-25T11:16:19.388Z,35.20
2019-04-25T11:17:24.225Z,35.20
2019-04-25T11:18:29.321Z,35.20
2019-04-25T11:19:34.916Z,35.30
2019-04-25T11:20:41.034Z,35.30
2019-04-25T11:21:46.562Z,35.40
2019-04-25T11:22:51.779Z,35.40
2019-04-25T11:23:57.833Z,35.40
2019-04-25T11:25:02.631Z,35.50
2019-04-25T11:26:07.764Z,35.50
2019-04-25T11:27:13.500Z,35.60
2019-04-25T11:28:18.676Z,35.60
2019-04-25T11:29:24.025Z,35.70
2019-04-25T11:30:29.962Z,35.70
2019-04-25T11:31:36.209Z,35.80
2019-04-25T11:32:40.806Z,35.90
2019-04-25T11:33:45.353Z,36.00
2019-04-25T11:34:50.714Z,36.00
2019-04-25T11:35:56.258Z,36.10
2019-04-25T11:37:01.272Z,36.20
2019-04-25T11:38:08.168Z,36.30
2019-04-25T11:39:20.554Z,36.40
2019-04-25T11:40:26.674Z,36.50
2019-04-25T11:41:31.159Z,36.60
2019-04-25T11:42:35.789Z,36.80
2019-04-25T11:43:40.268Z,36.90
2019-04-25T11:44:45.529Z,37.00
2019-04-25T11:45:50.465Z,37.20
2019-04-25T11:46:55.056Z,37.30
2019-04-25T11:47:59.601Z,37.40
2019-04-25T11:49:04.667Z,37.50
2019-04-25T11:50:09.663Z,37.60
2019-04-25T11:51:14.216Z,37.70
2019-04-25T11:52:27.438Z,37.80
2019-04-25T11:53:25.582Z,37.90
2019-04-25T11:54:30.040Z,37.90
2019-04-25T11:55:34.570Z,37.90
2019-04-25T11:56:39.122Z,37.90
2019-04-25T11:57:48.650Z,37.80
2019-04-25T11:58:50.681Z,37.80
2019-04-25T11:59:55.820Z,37.70
2019-04-25T12:01:00.508Z,37.70
2019-04-25T12:02:05.715Z,37.70
2019-04-25T12:03:10.191Z,37.60
2019-04-25T12:04:14.891Z,37.60
2019-04-25T12:05:19.672Z,37.50
2019-04-25T12:06:24.499Z,37.50
2019-04-25T12:07:29.054Z,37.40
2019-04-25T12:08:33.666Z,37.40
2019-04-25T12:09:38.302Z,37.30
2019-04-25T12:10:45.534Z,37.20
2019-04-25T12:11:49.940Z,37.10
2019-04-25T12:12:55.503Z,37.00
2019-04-25T12:14:00.046Z,37.00
2019-04-25T12:15:06.064Z,36.90
2019-04-25T12:16:10.692Z,36.80
2019-04-25T12:17:15.232Z,36.70
2019-04-25T12:18:19.704Z,36.60
2019-04-25T12:19:35.039Z,36.60
2019-04-25T12:20:30.445Z,36.40
2019-04-25T12:21:35.068Z,36.30
2019-04-25T12:22:39.598Z,36.20
2019-04-25T12:23:46.409Z,36.20
2019-04-25T12:24:50.694Z,36.10
2019-04-25T12:25:55.327Z,36.00
2019-04-25T12:26:59.818Z,36.00
2019-04-25T12:28:05.628Z,35.90
2019-04-25T12:29:10.181Z,35.80
2019-04-25T12:30:15.161Z,35.70
2019-04-25T12:31:19.702Z,35.60
2019-04-25T12:32:24.337Z,35.50
2019-04-25T12:33:28.799Z,35.40
2019-04-25T12:34:33.785Z,35.30
2019-04-25T12:35:38.439Z,35.20
2019-04-25T12:36:44.334Z,35.00
2019-04-25T12:37:49.889Z,34.90
2019-04-25T12:38:55.551Z,34.70
2019-04-25T12:40:00.138Z,34.50
2019-04-25T12:41:04.814Z,34.30
2019-04-25T12:42:09.286Z,34.10
2019-04-25T12:43:13.951Z,33.90
2019-04-25T12:44:25.894Z,33.70
2019-04-25T12:45:34.638Z,33.50
2019-04-25T12:46:43.746Z,33.30
2019-04-25T12:47:50.754Z,33.10
2019-04-25T12:48:55.454Z,33.00
2019-04-25T12:50:00.025Z,32.80
2019-04-25T12:51:05.204Z,32.70
2019-04-25T12:52:09.744Z,32.60
2019-04-25T12:53:14.411Z,32.50
2019-04-25T12:54:19.028Z,32.50
2019-04-25T12:55:23.986Z,32.40
2019-04-25T12:56:28.644Z,32.40
2019-04-25T12:57:33.161Z,32.30
2019-04-25T12:58:37.774Z,32.30
2019-04-25T12:59:45.000Z,32.30
2019-04-25T13:00:52.840Z,32.40
2019-04-25T13:01:55.837Z,32.40
2019-04-25T13:03:00.408Z,32.40
2019-04-25T13:04:05.258Z,32.40
2019-04-25T13:05:09.937Z,32.40
2019-04-25T13:06:15.808Z,32.30
2019-04-25T13:07:20.330Z,32.30
2019-04-25T13:08:24.797Z,32.20
2019-04-25T13:09:29.289Z,32.20
2019-04-25T13:10:34.402Z,32.00
2019-04-25T13:11:38.859Z,32.00
2019-04-25T13:12:44.386Z,31.80
2019-04-25T13:13:48.960Z,31.70
2019-04-25T13:14:53.460Z,31.60
2019-04-25T13:15:58.022Z,31.50
2019-04-25T13:17:04.040Z,31.50
2019-04-25T13:18:08.824Z,31.30
2019-04-25T13:19:23.079Z,31.20
2019-04-25T13:33:40.063Z,30.50
2019-04-25T13:34:46.175Z,30.50
2019-04-25T13:35:52.348Z,30.40
2019-04-25T13:36:58.071Z,30.30
2019-04-25T13:38:02.913Z,30.20
2019-04-25T13:39:09.667Z,30.20
2019-04-25T13:40:16.296Z,30.10
2019-04-25T13:41:20.842Z,30.00
2019-04-25T13:42:25.368Z,29.90
2019-04-25T13:43:29.921Z,29.90
2019-04-25T13:44:34.498Z,29.80
2019-04-25T13:45:39.043Z,29.80
2019-04-25T13:46:43.615Z,29.70
2019-04-25T13:47:48.076Z,29.60
2019-04-25T13:48:54.251Z,29.60
2019-04-25T13:49:58.962Z,29.50
2019-04-25T13:51:04.118Z,29.50
2019-04-25T13:52:09.299Z,29.40
2019-04-25T13:53:14.088Z,29.40
2019-04-25T13:54:18.570Z,29.30
2019-04-25T13:55:24.006Z,29.30
2019-04-25T13:56:29.409Z,29.30
2019-04-25T13:57:33.972Z,29.30
2019-04-25T13:58:38.513Z,29.20
2019-04-25T13:59:44.100Z,29.20
2019-04-25T14:00:49.266Z,29.20
2019-04-25T14:01:57.464Z,29.20
2019-04-25T14:03:01.150Z,29.20
2019-04-25T14:04:06.517Z,29.20
2019-04-25T14:05:12.726Z,29.20
2019-04-25T14:06:17.461Z,29.10
2019-04-25T14:07:22.915Z,29.10
2019-04-25T14:08:27.514Z,29.10
2019-04-25T14:09:32.186Z,29.10
2019-04-25T14:10:36.725Z,29.10
2019-04-25T14:11:41.260Z,29.10
2019-04-25T14:12:45.756Z,29.00
2019-04-25T14:13:50.510Z,29.00
2019-04-25T14:14:54.993Z,29.00
2019-04-25T14:16:04.070Z,28.90
2019-04-25T14:17:16.116Z,28.90
2019-04-25T14:18:34.211Z,28.90
2019-04-25T14:19:55.079Z,28.90
2019-04-25T14:21:03.779Z,28.80
2019-04-25T14:22:08.234Z,28.80
2019-04-25T14:23:14.963Z,28.80
2019-04-25T14:24:20.565Z,28.80
2019-04-25T14:25:27.168Z,28.80
2019-04-25T14:26:31.965Z,28.80
2019-04-25T14:27:36.442Z,28.70
2019-04-25T14:28:40.974Z,28.70
2019-04-25T14:29:45.450Z,28.70
2019-04-25T14:30:50.133Z,28.70
2019-04-25T14:31:54.670Z,28.70
2019-04-25T14:32:59.223Z,28.70
2019-04-25T14:34:05.020Z,28.70
2019-04-25T14:35:09.896Z,28.70
2019-04-25T14:36:14.461Z,28.90
2019-04-25T14:37:18.995Z,28.70
2019-04-25T14:38:25.078Z,28.70